createdAt,value
2022-11-21T00:01:00.053Z,6.70
2022-11-21T00:03:27.664Z,6.67
2022-11-21T00:05:55.356Z,6.59
2022-11-21T00:08:23.093Z,6.66
2022-11-21T00:10:51.016Z,6.70
2022-11-21T00:13:20.696Z,6.69
2022-11-21T00:15:49.004Z,6.72
2022-11-21T00:18:17.117Z,6.68
2022-11-21T00:20:45.153Z,6.70
2022-11-21T00:23:13.146Z,6.70
2022-11-21T00:25:41.197Z,6.55
2022-11-21T00:28:08.799Z,6.50
2022-11-21T00:30:38.468Z,6.55
2022-11-21T00:33:06.108Z,6.46
2022-11-21T00:35:36.268Z,6.34
2022-11-21T00:38:04.063Z,6.28
2022-11-21T00:40:31.925Z,6.31
2022-11-21T00:42:59.639Z,6.19
2022-11-21T00:45:27.403Z,6.21
2022-11-21T00:47:56.319Z,6.24
2022-11-21T00:50:24.040Z,6.22
2022-11-21T00:52:55.352Z,6.22
2022-11-21T00:55:23.339Z,6.26
2022-11-21T00:57:50.939Z,6.19
2022-11-21T01:00:19.381Z,6.29
2022-11-21T01:02:46.941Z,6.51
2022-11-21T01:05:16.062Z,6.66
2022-11-21T01:07:43.777Z,6.95
2022-11-21T01:10:11.595Z,7.04
2022-11-21T01:12:39.404Z,7.29
2022-11-21T01:15:07.853Z,7.33
2022-11-21T01:17:35.473Z,7.26
2022-11-21T01:20:03.183Z,7.09
2022-11-21T01:22:33.785Z,6.86
2022-11-21T01:25:01.716Z,6.78
2022-11-21T01:27:29.406Z,6.83
2022-11-21T01:29:57.114Z,6.82
2022-11-21T01:32:24.766Z,6.84
2022-11-21T01:34:52.602Z,6.85
2022-11-21T01:37:20.278Z,6.76
2022-11-21T01:39:49.461Z,6.74
2022-11-21T01:42:17.177Z,6.76
2022-11-21T01:44:50.371Z,6.67
2022-11-21T01:47:18.232Z,6.60
2022-11-21T01:49:46.467Z,6.58
2022-11-21T01:52:18.653Z,6.57
2022-11-21T01:54:49.347Z,6.55
2022-11-21T01:57:20.153Z,6.46
2022-11-21T01:59:50.238Z,6.37
2022-11-21T02:02:19.136Z,6.43
2022-11-21T02:04:49.153Z,6.43
2022-11-21T02:07:18.229Z,6.32
2022-11-21T02:09:48.032Z,6.24
2022-11-21T02:12:18.621Z,6.29
2022-11-21T02:14:49.935Z,6.39
2022-11-21T02:17:20.004Z,6.39
2022-11-21T02:19:51.772Z,6.31
2022-11-21T02:22:24.208Z,6.28
2022-11-21T02:25:00.399Z,6.29
2022-11-21T02:27:28.761Z,6.26
2022-11-21T02:29:56.643Z,6.24
2022-11-21T02:32:28.043Z,6.25
2022-11-21T02:34:56.008Z,6.19
2022-11-21T02:37:24.124Z,6.19
2022-11-21T02:39:52.079Z,6.11
2022-11-21T02:42:24.813Z,6.08
2022-11-21T02:44:55.533Z,6.08
2022-11-21T02:47:24.455Z,6.01
2022-11-21T02:49:59.512Z,6.00
2022-11-21T02:52:27.504Z,6.01
2022-11-21T02:54:55.253Z,5.97
2022-11-21T02:57:25.090Z,5.97
2022-11-21T02:59:52.948Z,5.93
2022-11-21T03:02:21.163Z,5.92
2022-11-21T03:04:49.199Z,5.90
2022-11-21T03:07:17.135Z,5.92
2022-11-21T03:09:45.276Z,5.96
2022-11-21T03:12:13.094Z,5.99
2022-11-21T03:14:42.464Z,5.94
2022-11-21T03:17:10.244Z,5.89
2022-11-21T03:19:38.165Z,5.87
2022-11-21T03:22:06.281Z,5.95
2022-11-21T03:24:34.424Z,6.02
2022-11-21T03:27:02.526Z,6.04
2022-11-21T03:29:30.622Z,6.06
2022-11-21T03:32:00.128Z,6.15
2022-11-21T03:34:28.181Z,6.17
2022-11-21T03:36:56.169Z,6.12
2022-11-21T03:39:23.806Z,6.09
2022-11-21T03:41:51.700Z,6.03
2022-11-21T03:44:19.565Z,6.02
2022-11-21T03:46:48.441Z,5.96
2022-11-21T03:49:17.996Z,5.97
2022-11-21T03:51:46.541Z,5.90
2022-11-21T03:54:14.998Z,6.02
2022-11-21T03:56:43.325Z,6.23
2022-11-21T03:59:11.365Z,6.37
2022-11-21T04:01:39.190Z,6.62
2022-11-21T04:04:07.833Z,6.66
2022-11-21T04:06:36.948Z,6.79
2022-11-21T04:09:05.596Z,6.83
2022-11-21T04:11:33.304Z,6.89
2022-11-21T04:14:01.856Z,6.98
2022-11-21T04:16:29.615Z,6.87
2022-11-21T04:18:57.769Z,6.82
2022-11-21T04:21:25.629Z,6.91
2022-11-21T04:23:54.858Z,6.80
2022-11-21T04:26:22.687Z,6.89
2022-11-21T04:28:50.704Z,7.04
2022-11-21T04:31:18.495Z,7.21
2022-11-21T04:33:46.389Z,7.25
2022-11-21T04:36:14.663Z,7.33
2022-11-21T04:38:42.530Z,7.24
2022-11-21T04:41:12.151Z,7.46
2022-11-21T04:43:40.120Z,7.57
2022-11-21T04:46:07.949Z,7.39
2022-11-21T04:48:35.965Z,7.13
2022-11-21T04:51:04.044Z,6.98
2022-11-21T04:53:32.189Z,6.81
2022-11-21T04:56:00.245Z,6.75
2022-11-21T04:58:29.804Z,6.61
2022-11-21T05:00:57.559Z,6.63
2022-11-21T05:03:30.824Z,6.66
2022-11-21T05:05:58.968Z,6.61
2022-11-21T05:08:26.723Z,6.57
2022-11-21T05:11:12.158Z,6.51
2022-11-21T05:13:41.890Z,6.40
2022-11-21T05:16:09.750Z,6.37
2022-11-21T05:18:37.710Z,6.39
2022-11-21T05:21:05.635Z,6.45
2022-11-21T05:23:33.490Z,6.47
2022-11-21T05:26:01.384Z,6.67
2022-11-21T05:28:30.058Z,6.69
2022-11-21T05:30:59.257Z,6.75
2022-11-21T05:33:26.928Z,6.71
2022-11-21T05:35:55.134Z,6.65
2022-11-21T05:38:23.488Z,6.67
2022-11-21T05:40:52.978Z,6.70
2022-11-21T05:43:38.354Z,6.64
2022-11-21T05:46:07.553Z,6.78
2022-11-21T05:48:36.992Z,6.78
2022-11-21T05:51:05.369Z,6.77
2022-11-21T05:53:34.819Z,6.66
2022-11-21T05:56:03.864Z,6.47
2022-11-21T05:58:31.748Z,6.41
2022-11-21T06:01:00.304Z,6.40
2022-11-21T06:03:31.680Z,6.45
2022-11-21T06:06:00.549Z,6.44
2022-11-21T06:08:29.268Z,6.61
2022-11-21T06:10:57.003Z,6.66
2022-11-21T06:13:25.047Z,6.67
2022-11-21T06:15:57.339Z,6.56
2022-11-21T06:18:25.215Z,6.58
2022-11-21T06:20:54.658Z,6.51
2022-11-21T06:23:22.482Z,6.54
2022-11-21T06:25:57.539Z,6.46
2022-11-21T06:28:25.683Z,6.48
2022-11-21T06:30:53.751Z,6.52
2022-11-21T06:33:21.596Z,6.53
2022-11-21T06:35:49.350Z,6.68
2022-11-21T06:38:19.899Z,6.69
2022-11-21T06:40:47.705Z,6.68
2022-11-21T06:43:15.679Z,6.68
2022-11-21T06:45:43.414Z,6.58
2022-11-21T06:48:11.755Z,6.73
2022-11-21T06:50:40.418Z,6.91
2022-11-21T06:53:08.335Z,6.94
2022-11-21T06:55:37.591Z,7.10
2022-11-21T06:58:05.513Z,7.13
2022-11-21T07:00:33.364Z,7.22
2022-11-21T07:03:03.421Z,7.24
2022-11-21T07:05:31.820Z,7.22
2022-11-21T07:08:00.437Z,7.35
2022-11-21T07:10:28.186Z,7.40
2022-11-21T07:13:22.194Z,7.61
2022-11-21T07:15:51.980Z,7.74
2022-11-21T07:18:20.698Z,7.76
2022-11-21T07:20:48.569Z,7.98
2022-11-21T07:23:17.410Z,8.05
2022-11-21T07:25:45.824Z,8.06
2022-11-21T07:28:15.060Z,8.23
2022-11-21T07:30:42.659Z,8.33
2022-11-21T07:33:10.671Z,8.60
2022-11-21T07:35:43.049Z,8.78
2022-11-21T07:38:11.059Z,9.03
2022-11-21T07:40:38.754Z,9.13
2022-11-21T07:43:10.834Z,9.24
2022-11-21T07:45:41.310Z,9.36
2022-11-21T07:48:11.965Z,9.48
2022-11-21T07:50:39.996Z,9.74
2022-11-21T07:53:08.601Z,9.85
2022-11-21T07:55:40.563Z,9.50
2022-11-21T07:58:09.932Z,9.41
2022-11-21T08:00:38.818Z,9.26
2022-11-21T08:03:08.661Z,9.11
2022-11-21T08:05:36.873Z,9.09
2022-11-21T08:08:05.719Z,8.94
2022-11-21T08:10:34.504Z,8.71
2022-11-21T08:13:02.699Z,8.62
2022-11-21T08:15:30.715Z,8.73
2022-11-21T08:17:58.627Z,8.91
2022-11-21T08:20:28.068Z,8.96
2022-11-21T08:22:56.180Z,8.73
2022-11-21T08:25:23.864Z,8.68
2022-11-21T08:27:51.555Z,8.59
2022-11-21T08:30:20.596Z,8.59
2022-11-21T08:32:48.468Z,8.47
2022-11-21T08:35:16.409Z,8.61
2022-11-21T08:37:46.158Z,8.60
2022-11-21T08:40:13.777Z,8.74
2022-11-21T08:42:41.631Z,9.03
2022-11-21T08:45:09.794Z,9.27
2022-11-21T08:47:37.866Z,9.54
2022-11-21T08:50:08.793Z,9.63
2022-11-21T08:52:37.058Z,9.64
2022-11-21T08:55:07.589Z,9.68
2022-11-21T08:57:38.454Z,10.00
2022-11-21T09:00:06.778Z,10.25
2022-11-21T09:02:34.900Z,10.09
2022-11-21T09:05:02.669Z,9.90
2022-11-21T09:07:30.310Z,9.83
2022-11-21T09:09:59.416Z,9.89
2022-11-21T09:12:28.634Z,10.03
2022-11-21T09:15:13.897Z,9.94
2022-11-21T09:17:59.325Z,10.00
2022-11-21T09:20:27.120Z,9.76
2022-11-21T09:22:55.799Z,11.34
2022-11-21T09:25:23.291Z,13.22
2022-11-21T09:27:53.450Z,13.63
2022-11-21T09:30:22.153Z,13.91
2022-11-21T09:32:50.789Z,13.82
2022-11-21T09:35:20.336Z,13.84
2022-11-21T09:37:48.061Z,13.36
2022-11-21T09:40:16.849Z,13.73
2022-11-21T09:42:54.891Z,12.99
2022-11-21T09:45:27.226Z,13.63
2022-11-21T09:47:56.553Z,13.97
2022-11-21T09:50:28.380Z,13.65
2022-11-21T09:52:59.824Z,12.62
2022-11-21T09:55:30.718Z,11.90
2022-11-21T09:57:59.332Z,11.23
2022-11-21T10:00:28.448Z,11.26
2022-11-21T10:02:57.227Z,11.53
2022-11-21T10:05:31.591Z,11.74
2022-11-21T10:08:02.740Z,12.08
2022-11-21T10:10:36.102Z,12.47
2022-11-21T10:13:12.965Z,13.96
2022-11-21T10:15:48.769Z,14.81
2022-11-21T10:18:29.421Z,14.59
2022-11-21T10:21:04.985Z,14.05
2022-11-21T10:23:42.599Z,13.24
2022-11-21T10:26:17.972Z,13.02
2022-11-21T10:28:51.703Z,13.88
2022-11-21T10:31:21.271Z,15.63
2022-11-21T10:33:50.834Z,17.15
2022-11-21T10:36:25.792Z,18.05
2022-11-21T10:38:55.817Z,15.77
2022-11-21T10:41:27.814Z,14.19
2022-11-21T10:44:16.023Z,12.27
2022-11-21T10:46:56.288Z,11.68
2022-11-21T10:49:25.821Z,13.49
2022-11-21T10:51:59.738Z,15.22
2022-11-21T10:54:36.755Z,17.58
2022-11-21T10:57:08.545Z,18.96
2022-11-21T10:59:36.943Z,19.53
2022-11-21T11:02:23.919Z,18.13
2022-11-21T11:05:13.122Z,17.44
2022-11-21T11:07:40.929Z,18.22
2022-11-21T11:10:16.315Z,17.98
2022-11-21T11:13:05.002Z,16.87
2022-11-21T11:15:39.320Z,15.11
2022-11-21T11:18:15.634Z,15.09
2022-11-21T11:20:45.125Z,13.97
2022-11-21T11:23:24.662Z,13.89
2022-11-21T11:25:53.614Z,16.27
2022-11-21T11:28:21.715Z,16.55
2022-11-21T11:30:50.362Z,13.94
2022-11-21T11:33:51.643Z,11.77
2022-11-21T11:36:26.259Z,10.40
2022-11-21T11:38:54.882Z,10.42
2022-11-21T11:41:59.409Z,11.07
2022-11-21T11:44:51.873Z,12.45
2022-11-21T11:47:32.561Z,11.84
2022-11-21T11:50:13.104Z,11.73
2022-11-21T11:52:50.733Z,11.33
2022-11-21T11:55:21.828Z,11.27
2022-11-21T11:57:51.472Z,11.09
2022-11-21T12:00:26.281Z,11.02
2022-11-21T12:02:58.325Z,11.39
2022-11-21T12:05:29.377Z,11.31
2022-11-21T12:08:40.071Z,11.32
2022-11-21T12:11:13.367Z,11.60
2022-11-21T12:13:43.182Z,11.37
2022-11-21T12:16:13.868Z,11.71
2022-11-21T12:18:47.785Z,13.38
2022-11-21T12:21:18.666Z,16.97
2022-11-21T12:23:47.549Z,20.24
2022-11-21T12:26:22.007Z,22.56
2022-11-21T12:28:58.003Z,23.26
2022-11-21T12:31:28.345Z,20.46
2022-11-21T12:33:59.641Z,17.75
2022-11-21T12:36:33.397Z,17.38
2022-11-21T12:39:17.665Z,16.32
2022-11-21T12:42:12.713Z,18.82
2022-11-21T12:44:49.834Z,21.06
2022-11-21T12:47:26.199Z,16.78
2022-11-21T12:50:13.104Z,18.48
2022-11-21T12:53:00.349Z,20.95
2022-11-21T12:55:36.031Z,20.93
2022-11-21T12:58:07.198Z,19.54
2022-11-21T13:00:41.425Z,15.36
2022-11-21T13:03:33.648Z,15.22
2022-11-21T13:06:02.780Z,16.42
2022-11-21T13:08:33.089Z,17.60
2022-11-21T13:11:19.328Z,17.49
2022-11-21T13:13:49.377Z,16.23
2022-11-21T13:16:37.009Z,17.49
2022-11-21T13:19:18.555Z,16.62
2022-11-21T13:21:48.680Z,14.16
2022-11-21T13:24:31.301Z,12.77
2022-11-21T13:27:00.442Z,12.29
2022-11-21T13:29:28.246Z,12.52
2022-11-21T13:31:56.256Z,12.77
2022-11-21T13:34:35.966Z,13.02
2022-11-21T13:37:04.830Z,13.36
2022-11-21T13:39:34.155Z,13.45
2022-11-21T13:42:24.653Z,13.31
2022-11-21T13:44:53.536Z,13.26
2022-11-21T13:47:55.817Z,13.20
2022-11-21T13:50:38.608Z,13.33
2022-11-21T13:53:16.374Z,13.18
2022-11-21T13:55:56.204Z,13.07
2022-11-21T13:58:30.497Z,12.83
2022-11-21T14:01:10.649Z,12.57
2022-11-21T14:03:59.808Z,12.45
2022-11-21T14:06:36.416Z,12.36
2022-11-21T14:09:15.707Z,12.67
2022-11-21T14:11:48.521Z,15.18
2022-11-21T14:14:26.130Z,16.93
2022-11-21T14:17:00.045Z,18.78
2022-11-21T14:19:28.650Z,20.05
2022-11-21T14:21:57.757Z,21.72
2022-11-21T14:24:25.553Z,22.77
2022-11-21T14:26:54.237Z,22.08
2022-11-21T14:29:27.814Z,20.91
2022-11-21T14:31:56.050Z,18.30
2022-11-21T14:34:27.594Z,16.17
2022-11-21T14:36:56.589Z,14.44
2022-11-21T14:39:44.750Z,13.35
2022-11-21T14:42:13.984Z,12.53
2022-11-21T14:44:43.267Z,11.95
2022-11-21T14:47:18.484Z,11.63
2022-11-21T14:49:51.809Z,11.23
2022-11-21T14:52:27.592Z,10.87
2022-11-21T14:57:46.757Z,10.54
2022-11-21T15:00:51.307Z,10.49
2022-11-21T15:03:18.078Z,10.41
2022-11-21T15:06:05.193Z,10.36
2022-11-21T15:11:24.955Z,9.86
2022-11-21T15:16:47.236Z,9.17
2022-11-21T15:19:20.188Z,8.83
2022-11-21T15:21:48.355Z,8.66
2022-11-21T15:24:20.609Z,8.48
2022-11-21T15:26:48.302Z,8.46
2022-11-21T15:29:20.560Z,8.27
2022-11-21T15:32:06.355Z,8.15
2022-11-21T15:34:36.073Z,8.08
2022-11-21T15:37:24.100Z,8.00
2022-11-21T15:39:52.488Z,7.68
2022-11-21T15:42:30.157Z,7.58
2022-11-21T15:44:58.763Z,7.39
2022-11-21T15:47:28.634Z,7.38
2022-11-21T15:49:56.417Z,7.28
2022-11-21T15:52:24.469Z,7.16
2022-11-21T15:54:52.193Z,7.14
2022-11-21T15:57:14.065Z,9.54
2022-11-21T15:57:21.850Z,7.10
2022-11-21T15:59:50.107Z,7.29
2022-11-21T16:02:18.231Z,7.24
2022-11-21T16:04:47.270Z,7.17
2022-11-21T16:07:15.012Z,7.12
2022-11-21T16:09:44.968Z,7.05
2022-11-21T16:12:12.693Z,6.98
2022-11-21T16:14:40.588Z,7.05
2022-11-21T16:17:08.255Z,7.06
2022-11-21T16:19:36.076Z,6.94
2022-11-21T16:22:05.370Z,6.82
2022-11-21T16:24:33.110Z,6.82
2022-11-21T16:27:02.324Z,6.75
2022-11-21T16:29:30.698Z,6.67
2022-11-21T16:31:59.697Z,6.57
2022-11-21T16:34:27.632Z,6.48
2022-11-21T16:36:55.853Z,6.40
2022-11-21T16:39:24.918Z,6.53
2022-11-21T16:41:52.454Z,6.50
2022-11-21T16:44:21.200Z,6.46
2022-11-21T16:46:51.638Z,6.41
2022-11-21T16:49:20.544Z,6.33
2022-11-21T16:51:48.204Z,6.14
2022-11-21T16:54:15.980Z,6.09
2022-11-21T16:56:45.103Z,6.03
2022-11-21T16:59:13.068Z,6.03
2022-11-21T17:01:41.310Z,6.01
2022-11-21T17:04:15.617Z,5.99
2022-11-21T17:06:45.582Z,6.01
2022-11-21T17:09:13.708Z,6.09
2022-11-21T17:11:41.433Z,6.22
2022-11-21T17:14:12.161Z,6.19
2022-11-21T17:16:41.798Z,6.30
2022-11-21T17:19:11.868Z,6.51
2022-11-21T17:21:39.520Z,6.53
2022-11-21T17:24:07.781Z,6.37
2022-11-21T17:26:36.776Z,6.33
2022-11-21T17:29:05.194Z,6.44
2022-11-21T17:31:34.410Z,6.34
2022-11-21T17:34:02.274Z,6.35
2022-11-21T17:36:31.260Z,6.19
2022-11-21T17:38:59.478Z,6.12
2022-11-21T17:41:28.450Z,6.08
2022-11-21T17:43:57.323Z,6.07
2022-11-21T17:46:26.498Z,6.04
2022-11-21T17:48:59.164Z,6.05
2022-11-21T17:51:28.947Z,6.19
2022-11-21T17:53:57.713Z,6.09
2022-11-21T17:56:27.274Z,6.12
2022-11-21T17:58:55.660Z,6.25
2022-11-21T18:01:23.855Z,6.24
2022-11-21T18:03:58.355Z,6.28
2022-11-21T18:06:27.896Z,6.44
2022-11-21T18:08:57.820Z,6.39
2022-11-21T18:11:31.926Z,6.25
2022-11-21T18:14:03.769Z,6.25
2022-11-21T18:16:33.163Z,6.39
2022-11-21T18:19:02.972Z,6.42
2022-11-21T18:21:32.519Z,6.54
2022-11-21T18:24:01.273Z,6.70
2022-11-21T18:26:30.593Z,6.89
2022-11-21T18:29:34.517Z,6.91
2022-11-21T18:31:49.917Z,6.92
2022-11-21T18:34:19.530Z,6.94
2022-11-21T18:36:48.914Z,6.91
2022-11-21T18:39:17.027Z,7.02
2022-11-21T18:41:45.083Z,7.11
2022-11-21T18:44:19.993Z,7.06
2022-11-21T18:46:49.827Z,7.00
2022-11-21T18:49:19.203Z,7.02
2022-11-21T18:51:48.421Z,6.93
2022-11-21T18:54:19.160Z,7.03
2022-11-21T18:56:48.825Z,7.06
2022-11-21T18:59:17.245Z,7.17
2022-11-21T19:01:45.803Z,7.37
2022-11-21T19:04:17.850Z,7.46
2022-11-21T19:06:48.068Z,7.47
2022-11-21T19:09:16.449Z,7.56
2022-11-21T19:11:44.768Z,7.52
2022-11-21T19:14:13.039Z,7.46
2022-11-21T19:16:41.632Z,7.44
2022-11-21T19:22:01.149Z,7.56
2022-11-21T19:24:29.750Z,7.72
2022-11-21T19:26:57.857Z,7.65
2022-11-21T19:29:26.356Z,7.83
2022-11-21T19:31:55.743Z,7.82
2022-11-21T19:34:24.225Z,7.66
2022-11-21T19:36:52.035Z,7.35
2022-11-21T19:39:22.994Z,7.28
2022-11-21T19:41:51.007Z,7.30
2022-11-21T19:44:20.016Z,7.30
2022-11-21T19:46:49.494Z,7.39
2022-11-21T19:49:19.565Z,7.30
2022-11-21T19:51:47.294Z,7.31
2022-11-21T19:54:16.847Z,7.16
2022-11-21T19:56:46.138Z,7.14
2022-11-21T19:59:14.555Z,7.01
2022-11-21T20:01:42.909Z,7.01
2022-11-21T20:04:15.753Z,7.07
2022-11-21T20:06:46.739Z,7.05
2022-11-21T20:09:16.742Z,7.08
2022-11-21T20:11:46.639Z,7.08
2022-11-21T20:14:21.396Z,6.99
2022-11-21T20:16:50.029Z,7.09
2022-11-21T20:19:19.573Z,7.13
2022-11-21T20:21:47.811Z,7.15
2022-11-21T20:24:15.897Z,7.24
2022-11-21T20:26:44.135Z,7.32
2022-11-21T20:29:14.676Z,7.35
2022-11-21T20:31:42.894Z,7.09
2022-11-21T20:34:12.689Z,7.11
2022-11-21T20:36:40.710Z,7.16
2022-11-21T20:39:09.290Z,7.33
2022-11-21T20:41:37.948Z,7.37
2022-11-21T20:47:02.450Z,7.35
2022-11-21T20:49:30.566Z,7.08
2022-11-21T20:54:54.759Z,6.82
2022-11-21T20:57:22.888Z,6.74
2022-11-21T20:59:50.621Z,6.76
2022-11-21T21:02:20.282Z,6.67
2022-11-21T21:04:48.231Z,6.63
2022-11-21T21:07:16.518Z,6.57
2022-11-21T21:09:44.296Z,6.69
2022-11-21T21:12:12.080Z,6.72
2022-11-21T21:14:39.934Z,6.53
2022-11-21T21:17:07.573Z,6.54
2022-11-21T21:19:36.710Z,6.63
2022-11-21T21:22:08.936Z,6.73
2022-11-21T21:24:36.669Z,6.75
2022-11-21T21:27:04.404Z,6.71
2022-11-21T21:29:32.717Z,6.81
2022-11-21T21:32:00.833Z,6.89
2022-11-21T21:34:28.995Z,6.95
2022-11-21T21:36:58.783Z,6.83
2022-11-21T21:39:27.300Z,6.72
2022-11-21T21:41:55.267Z,6.74
2022-11-21T21:44:27.025Z,6.82
2022-11-21T21:46:58.712Z,7.01
2022-11-21T21:49:26.581Z,7.19
2022-11-21T21:51:56.013Z,7.29
2022-11-21T21:54:25.136Z,7.32
2022-11-21T21:56:53.442Z,7.35
2022-11-21T21:59:21.677Z,7.25
2022-11-21T22:01:50.165Z,7.18
2022-11-21T22:04:18.408Z,7.39
2022-11-21T22:06:46.079Z,7.54
2022-11-21T22:09:13.669Z,7.75
2022-11-21T22:11:43.097Z,7.88
2022-11-21T22:14:12.348Z,7.85
2022-11-21T22:16:40.616Z,7.81
2022-11-21T22:19:08.642Z,7.85
2022-11-21T22:21:37.483Z,7.78
2022-11-21T22:26:59.643Z,7.77
2022-11-21T22:29:27.675Z,7.79
2022-11-21T22:31:56.257Z,7.73
2022-11-21T22:34:26.777Z,7.67
2022-11-21T22:36:57.635Z,7.74
2022-11-21T22:39:26.772Z,7.79
2022-11-21T22:41:59.866Z,7.85
2022-11-21T22:44:28.535Z,7.86
2022-11-21T22:46:56.417Z,7.87
2022-11-21T22:49:24.129Z,7.91
2022-11-21T22:51:51.812Z,7.89
2022-11-21T22:54:20.564Z,7.68
2022-11-21T22:56:48.250Z,7.69
2022-11-21T22:59:18.254Z,7.74
2022-11-21T23:01:45.893Z,7.82
2022-11-21T23:04:17.649Z,7.67
2022-11-21T23:06:46.019Z,7.76
2022-11-21T23:09:14.016Z,7.69
2022-11-21T23:11:41.740Z,7.80
2022-11-21T23:14:09.438Z,7.96
2022-11-21T23:16:38.528Z,8.01
2022-11-21T23:19:06.402Z,7.93
2022-11-21T23:21:34.193Z,7.98
2022-11-21T23:24:02.404Z,7.97
2022-11-21T23:26:30.363Z,8.03
2022-11-21T23:28:59.582Z,7.99
2022-11-21T23:31:29.035Z,7.95
2022-11-21T23:33:58.124Z,7.97
2022-11-21T23:36:25.903Z,7.95
2022-11-21T23:38:53.611Z,7.71
2022-11-21T23:41:21.499Z,7.71
2022-11-21T23:43:49.185Z,7.79
2022-11-21T23:46:16.979Z,7.83
2022-11-21T23:48:44.689Z,7.89
2022-11-21T23:51:14.119Z,7.94
2022-11-21T23:53:42.050Z,7.88
2022-11-21T23:56:09.866Z,7.86
2022-11-21T23:58:37.990Z,7.92
